Time;durP1;ratioP1;P1;durP2;ratioP2;P2;SDS_P1;SDS_P2;PMS_P1;PMS_P2;Temp;Humidity;BMP_temperature;BMP_pressure;BME280_temperature;BME280_humidity;BME280_pressure;Samples;Min_cycle;Max_cycle;Signal;HPM_P1;HPM_P2
2022/11/21 00:01:56;;;;;;;1.27;0.80;;;6.00;99.90;;;;;;5067986;28;20727;-72
2022/11/21 00:04:22;;;;;;;0.70;0.50;;;5.90;99.90;;;;;;5085179;28;20229;-71
2022/11/21 00:06:50;;;;;;;1.07;0.40;;;5.90;99.90;;;;;;5106013;28;20222;-72
2022/11/21 00:09:16;;;;;;;0.40;0.40;;;5.90;99.90;;;;;;5088556;28;20599;-72
2022/11/21 00:11:41;;;;;;;0.67;0.67;;;5.90;99.90;;;;;;5080570;28;20453;-72
2022/11/21 00:14:07;;;;;;;0.80;0.70;;;5.90;99.90;;;;;;5084897;28;20281;-72
2022/11/21 00:16:32;;;;;;;1.07;0.60;;;5.90;99.90;;;;;;5085903;28;20743;-71
2022/11/21 00:18:58;;;;;;;1.33;0.90;;;5.90;99.90;;;;;;5084913;28;20294;-72
2022/11/21 00:21:24;;;;;;;1.57;1.00;;;5.80;99.90;;;;;;5086602;28;20231;-72
2022/11/21 00:23:52;;;;;;;1.90;0.70;;;5.80;99.90;;;;;;5069991;28;20314;-72
2022/11/21 00:26:17;;;;;;;3.50;1.13;;;5.80;99.90;;;;;;5068254;28;20235;-72
2022/11/21 00:28:44;;;;;;;1.00;0.70;;;5.80;99.90;;;;;;5067983;28;20453;-71
2022/11/21 00:31:18;;;;;;;1.47;0.90;;;5.80;99.90;;;;;;5079934;28;20280;-72
2022/11/21 00:33:44;;;;;;;2.40;0.73;;;5.80;99.90;;;;;;5098413;28;20980;-71
2022/11/21 00:36:09;;;;;;;5.17;1.20;;;5.80;99.90;;;;;;5086924;28;20461;-72
2022/11/21 00:38:36;;;;;;;2.40;0.90;;;5.80;99.90;;;;;;5074530;28;20219;-72
2022/11/21 00:41:02;;;;;;;4.70;1.37;;;5.80;99.90;;;;;;5070423;28;20270;-72
2022/11/21 00:43:27;;;;;;;2.67;0.90;;;5.80;99.90;;;;;;5102185;28;20488;-72
2022/11/21 00:45:53;;;;;;;2.80;1.10;;;5.80;99.90;;;;;;5086567;28;20222;-72
2022/11/21 00:48:18;;;;;;;2.20;1.60;;;5.80;99.90;;;;;;5075426;28;20278;-72
2022/11/21 00:50:48;;;;;;;2.30;1.40;;;5.80;99.90;;;;;;5066727;28;20219;-72
2022/11/21 00:53:13;;;;;;;3.13;1.07;;;5.80;99.90;;;;;;5058178;28;20381;-72
2022/11/21 00:55:40;;;;;;;4.10;2.03;;;5.80;99.90;;;;;;5080889;28;20527;-72
2022/11/21 00:58:06;;;;;;;3.10;1.30;;;5.80;99.90;;;;;;5062758;28;20223;-72
2022/11/21 01:00:31;;;;;;;3.60;1.43;;;5.80;99.90;;;;;;5110456;27;20545;-73
2022/11/21 01:02:57;;;;;;;2.17;1.10;;;5.80;99.90;;;;;;5118564;27;20603;-72
2022/11/21 01:05:22;;;;;;;5.73;1.50;;;5.80;99.90;;;;;;5097892;28;20215;-72
2022/11/21 01:07:48;;;;;;;6.00;2.03;;;5.80;99.90;;;;;;5126277;27;20604;-70
2022/11/21 01:10:14;;;;;;;1.30;1.20;;;5.80;99.90;;;;;;5109381;28;20699;-73
2022/11/21 01:12:40;;;;;;;2.20;1.50;;;5.90;99.90;;;;;;5067827;28;20219;-71
2022/11/21 01:15:06;;;;;;;4.73;1.67;;;5.90;99.90;;;;;;5079879;28;20228;-72
2022/11/21 01:17:32;;;;;;;5.73;1.27;;;5.90;99.90;;;;;;5053252;28;20228;-72
2022/11/21 01:19:58;;;;;;;1.63;1.40;;;5.90;99.90;;;;;;5082895;28;20519;-72
2022/11/21 01:22:24;;;;;;;5.80;2.17;;;5.80;99.90;;;;;;5061861;28;20458;-72
2022/11/21 01:24:49;;;;;;;2.10;1.77;;;5.80;99.90;;;;;;5063248;28;20211;-72
2022/11/21 01:27:15;;;;;;;5.73;1.50;;;5.80;99.90;;;;;;5070760;28;20213;-71
2022/11/21 01:29:41;;;;;;;7.50;3.70;;;5.80;99.90;;;;;;5076288;28;20214;-72
2022/11/21 01:32:06;;;;;;;4.90;1.70;;;5.80;99.90;;;;;;5074418;28;20219;-72
2022/11/21 01:34:32;;;;;;;2.90;1.80;;;5.80;99.90;;;;;;5082339;28;20219;-72
2022/11/21 01:36:58;;;;;;;2.33;1.20;;;5.80;99.90;;;;;;5056313;28;20215;-71
2022/11/21 01:39:24;;;;;;;10.13;2.30;;;5.80;99.90;;;;;;5072554;28;20258;-72
2022/11/21 01:41:49;;;;;;;4.20;2.07;;;5.80;99.90;;;;;;5054958;28;20675;-72
2022/11/21 01:44:44;;;;;;;4.93;1.47;;;5.80;99.90;;;;;;5054500;28;20677;-72
2022/11/21 01:47:11;;;;;;;5.37;1.70;;;5.80;99.90;;;;;;5047043;28;20212;-72
2022/11/21 01:49:39;;;;;;;6.30;1.70;;;5.80;99.90;;;;;;5086364;28;20474;-72
2022/11/21 01:52:11;;;;;;;5.53;2.20;;;5.80;99.90;;;;;;5091269;28;20535;-72
2022/11/21 01:54:58;;;;;;;5.80;2.20;;;5.80;99.90;;;;;;5056041;28;20500;-71
2022/11/21 01:57:29;;;;;;;4.97;1.63;;;5.80;99.90;;;;;;5087387;28;20516;-72
2022/11/21 02:00:08;;;;;;;5.00;2.00;;;5.80;99.90;;;;;;5089001;28;20476;-72
2022/11/21 02:02:38;;;;;;;2.57;1.97;;;5.80;99.90;;;;;;5062336;28;20458;-72
2022/11/21 02:05:07;;;;;;;4.87;1.60;;;5.80;99.90;;;;;;5084205;28;20595;-71
2022/11/21 02:07:39;;;;;;;4.00;1.97;;;5.80;99.90;;;;;;5103361;28;20468;-71
2022/11/21 02:10:06;;;;;;;5.07;1.80;;;5.80;99.90;;;;;;5088071;28;20453;-72
2022/11/21 02:12:48;;;;;;;5.27;1.90;;;5.80;99.90;;;;;;5083585;28;20568;-71
2022/11/21 02:15:14;;;;;;;11.77;3.10;;;5.80;99.90;;;;;;5105995;27;20477;-72
2022/11/21 02:17:40;;;;;;;2.63;2.00;;;5.80;99.90;;;;;;5068530;28;20548;-72
2022/11/21 02:20:08;;;;;;;10.60;2.20;;;5.80;99.90;;;;;;5072860;28;20687;-72
2022/11/21 02:22:52;;;;;;;8.97;2.73;;;5.80;99.90;;;;;;5051654;28;20258;-72
2022/11/21 02:25:20;;;;;;;2.83;1.27;;;5.80;99.90;;;;;;5074768;28;20445;-72
2022/11/21 02:27:48;;;;;;;1.60;1.50;;;5.80;99.90;;;;;;5089350;28;20437;-72
2022/11/21 02:30:15;;;;;;;3.97;1.80;;;5.80;99.90;;;;;;5064207;28;20521;-72
2022/11/21 02:32:46;;;;;;;2.80;1.47;;;5.80;99.90;;;;;;5086952;28;20444;-72
2022/11/21 02:35:13;;;;;;;5.10;1.97;;;5.80;99.90;;;;;;5075033;28;20457;-72
2022/11/21 02:37:40;;;;;;;4.93;1.80;;;5.80;99.90;;;;;;5070960;28;20461;-72
2022/11/21 02:40:11;;;;;;;2.97;1.43;;;5.70;99.90;;;;;;5053332;28;20472;-72
2022/11/21 02:43:05;;;;;;;2.23;1.73;;;5.70;99.90;;;;;;5070293;28;20454;-72
2022/11/21 02:45:44;;;;;;;3.13;1.50;;;5.70;99.90;;;;;;5071660;28;20452;-72
2022/11/21 02:48:11;;;;;;;4.03;1.37;;;5.70;99.90;;;;;;5069389;28;20536;-72
2022/11/21 02:50:38;;;;;;;5.80;1.70;;;5.70;99.90;;;;;;5061176;28;20453;-72
2022/11/21 02:53:06;;;;;;;1.63;1.53;;;5.70;99.90;;;;;;5061330;28;20473;-71
2022/11/21 02:55:32;;;;;;;7.07;1.67;;;5.70;99.90;;;;;;5071318;28;20445;-72
2022/11/21 02:57:58;;;;;;;5.20;1.40;;;5.70;99.90;;;;;;5086064;28;20452;-72
2022/11/21 03:00:23;;;;;;;4.00;1.30;;;5.70;99.90;;;;;;5076015;28;20585;-71
2022/11/21 03:02:50;;;;;;;7.00;1.93;;;5.70;99.90;;;;;;5070055;28;20449;-72
2022/11/21 03:05:17;;;;;;;1.30;1.20;;;5.70;99.90;;;;;;5056465;28;20235;-72
2022/11/21 03:07:43;;;;;;;1.20;1.10;;;5.60;99.90;;;;;;5049728;28;20467;-72
2022/11/21 03:10:09;;;;;;;3.20;1.40;;;5.70;99.90;;;;;;5049608;28;20457;-72
2022/11/21 03:12:36;;;;;;;1.97;1.20;;;5.60;99.90;;;;;;5071410;28;20223;-72
2022/11/21 03:15:03;;;;;;;2.20;1.30;;;5.60;99.90;;;;;;5093811;28;20445;-72
2022/11/21 03:17:28;;;;;;;2.63;1.93;;;5.70;99.90;;;;;;5094557;28;20457;-71
2022/11/21 03:19:54;;;;;;;2.03;1.10;;;5.60;99.90;;;;;;5071455;28;20480;-72
2022/11/21 03:22:19;;;;;;;4.23;1.77;;;5.60;99.90;;;;;;5089937;28;20242;-70
2022/11/21 03:24:45;;;;;;;1.63;1.10;;;5.60;99.90;;;;;;5114349;27;20212;-72
2022/11/21 03:27:11;;;;;;;2.53;1.00;;;5.60;99.90;;;;;;5085587;28;20692;-72
2022/11/21 03:29:36;;;;;;;7.00;1.30;;;5.60;99.90;;;;;;5075632;28;20305;-72
2022/11/21 03:32:02;;;;;;;1.47;0.90;;;5.60;99.90;;;;;;5071467;28;20215;-72
2022/11/21 03:34:28;;;;;;;0.73;0.73;;;5.60;99.90;;;;;;5093890;28;20230;-72
2022/11/21 03:36:53;;;;;;;1.50;0.87;;;5.60;99.90;;;;;;5102158;28;20446;-72
2022/11/21 03:39:19;;;;;;;0.83;0.83;;;5.60;99.90;;;;;;5085942;28;20269;-72
2022/11/21 03:41:45;;;;;;;4.00;1.30;;;5.60;99.90;;;;;;5085990;28;20231;-72
2022/11/21 03:44:11;;;;;;;0.83;0.80;;;5.60;99.90;;;;;;5091133;28;20276;-71
2022/11/21 03:46:39;;;;;;;0.80;0.80;;;5.60;99.90;;;;;;5101435;28;20243;-72
2022/11/21 03:49:06;;;;;;;2.10;1.10;;;5.60;99.90;;;;;;5076822;28;20461;-72
2022/11/21 03:51:32;;;;;;;1.30;0.93;;;5.60;99.90;;;;;;5073689;28;20467;-71
2022/11/21 03:53:58;;;;;;;2.33;1.00;;;5.60;99.90;;;;;;5070065;28;20462;-72
2022/11/21 03:56:25;;;;;;;6.73;1.30;;;5.60;99.90;;;;;;5086199;28;20555;-72
2022/11/21 03:58:51;;;;;;;5.40;1.00;;;5.60;99.90;;;;;;5070519;28;20437;-72
2022/11/21 04:01:17;;;;;;;1.00;0.90;;;5.60;99.90;;;;;;5072139;28;20462;-71
2022/11/21 04:03:44;;;;;;;1.03;0.93;;;5.60;99.90;;;;;;5089479;28;20449;-72
2022/11/21 04:06:11;;;;;;;1.43;1.27;;;5.50;99.90;;;;;;5070870;28;20497;-72
2022/11/21 04:08:37;;;;;;;1.07;1.07;;;5.60;99.90;;;;;;5072070;28;20473;-72
2022/11/21 04:11:03;;;;;;;1.03;0.93;;;5.60;99.90;;;;;;5067781;28;20522;-71
2022/11/21 04:13:28;;;;;;;1.80;1.17;;;5.60;99.90;;;;;;5070601;28;20230;-72
2022/11/21 04:15:54;;;;;;;0.87;0.80;;;5.60;99.90;;;;;;5052357;28;20208;-72
2022/11/21 04:18:20;;;;;;;1.43;1.00;;;5.60;99.90;;;;;;5069798;28;20223;-72
2022/11/21 04:20:46;;;;;;;4.90;1.10;;;5.60;99.90;;;;;;5101356;28;20700;-72
2022/11/21 04:23:12;;;;;;;2.93;1.37;;;5.60;99.90;;;;;;5085430;28;20445;-72
2022/11/21 04:25:39;;;;;;;6.00;1.07;;;5.60;99.90;;;;;;5076404;28;20453;-72
2022/11/21 04:28:05;;;;;;;0.80;0.70;;;5.60;99.90;;;;;;5084381;28;20456;-72
2022/11/21 04:30:33;;;;;;;5.80;2.00;;;5.60;99.90;;;;;;5075628;28;20437;-72
2022/11/21 04:32:59;;;;;;;2.80;1.07;;;5.60;99.90;;;;;;5068327;28;20223;-72
2022/11/21 04:35:25;;;;;;;1.33;1.03;;;5.60;99.90;;;;;;5068459;28;20453;-71
2022/11/21 04:37:51;;;;;;;5.53;1.13;;;5.60;99.90;;;;;;5072314;28;21020;-71
2022/11/21 04:40:17;;;;;;;0.90;0.80;;;5.60;99.90;;;;;;5069175;28;20470;-71
2022/11/21 04:42:44;;;;;;;1.93;0.87;;;5.60;99.90;;;;;;5077842;28;20226;-72
2022/11/21 04:45:11;;;;;;;0.63;0.63;;;5.60;99.90;;;;;;5087819;28;20224;-72
2022/11/21 04:47:37;;;;;;;2.90;1.07;;;5.60;99.90;;;;;;5072160;28;20997;-71
2022/11/21 04:50:03;;;;;;;2.60;0.90;;;5.60;99.90;;;;;;5076027;28;20459;-72
2022/11/21 04:52:29;;;;;;;0.93;0.83;;;5.60;99.90;;;;;;5123025;27;20453;-72
2022/11/21 04:54:54;;;;;;;1.23;1.03;;;5.60;99.90;;;;;;5077977;28;20485;-72
2022/11/21 04:57:20;;;;;;;0.90;0.80;;;5.60;99.90;;;;;;5086471;28;20215;-72
2022/11/21 04:59:46;;;;;;;2.23;1.20;;;5.60;99.90;;;;;;5078956;28;20767;-71
2022/11/21 05:02:11;;;;;;;1.97;0.80;;;5.60;99.90;;;;;;5058127;28;20302;-72
2022/11/21 05:04:38;;;;;;;2.80;1.10;;;5.60;99.90;;;;;;5067793;28;20619;-71
2022/11/21 05:07:04;;;;;;;3.10;1.53;;;5.70;99.90;;;;;;5064664;28;20227;-71
2022/11/21 05:09:29;;;;;;;1.30;1.00;;;5.70;99.90;;;;;;5085060;28;20441;-71
2022/11/21 05:14:39;;;;;;;1.63;0.90;;;5.70;99.90;;;;;;5082633;28;20225;-71
2022/11/21 05:17:05;;;;;;;0.97;0.87;;;5.70;99.90;;;;;;5069172;28;20458;-71
2022/11/21 05:19:30;;;;;;;2.50;1.70;;;5.70;99.90;;;;;;5085059;28;20303;-72
2022/11/21 05:21:56;;;;;;;2.77;1.40;;;5.70;99.90;;;;;;5054754;28;20309;-72
2022/11/21 05:24:22;;;;;;;1.90;1.07;;;5.70;99.90;;;;;;5107458;28;20574;-72
2022/11/21 05:26:47;;;;;;;3.13;1.10;;;5.70;99.90;;;;;;5076148;28;20215;-72
2022/11/21 05:29:13;;;;;;;1.33;1.23;;;5.70;99.90;;;;;;5057595;28;20219;-72
2022/11/21 05:31:39;;;;;;;1.50;1.40;;;5.70;99.90;;;;;;5068166;28;20264;-71
2022/11/21 05:34:04;;;;;;;2.60;0.83;;;5.70;99.90;;;;;;5070110;28;20216;-72
2022/11/21 05:36:30;;;;;;;2.23;1.10;;;5.70;99.90;;;;;;5086488;28;20223;-71
2022/11/21 05:38:56;;;;;;;1.20;1.03;;;5.70;99.90;;;;;;5105169;28;20231;-72
2022/11/21 05:41:21;;;;;;;1.97;0.80;;;5.70;99.90;;;;;;5089292;28;20231;-72
2022/11/21 05:43:48;;;;;;;0.80;0.80;;;5.70;99.90;;;;;;5093195;28;20579;-73
2022/11/21 05:46:19;;;;;;;1.43;0.90;;;5.70;99.90;;;;;;5073372;28;20214;-72
2022/11/21 05:48:45;;;;;;;1.10;1.00;;;5.70;99.90;;;;;;5061092;28;20460;-72
2022/11/21 05:51:11;;;;;;;2.10;1.23;;;5.60;99.90;;;;;;5063553;28;20469;-72
2022/11/21 05:53:37;;;;;;;4.40;1.47;;;5.60;99.90;;;;;;5088154;28;20457;-72
2022/11/21 05:56:11;;;;;;;2.03;0.90;;;5.60;99.90;;;;;;5070487;28;20215;-71
2022/11/21 05:58:37;;;;;;;3.13;0.77;;;5.60;99.90;;;;;;5080736;28;20242;-71
2022/11/21 06:01:04;;;;;;;1.20;1.10;;;5.50;99.90;;;;;;5075125;28;20480;-72
2022/11/21 06:03:34;;;;;;;1.40;0.90;;;5.50;99.90;;;;;;5076844;28;20506;-71
2022/11/21 06:06:05;;;;;;;2.37;0.70;;;5.50;99.90;;;;;;5087910;28;20470;-72
2022/11/21 06:08:39;;;;;;;1.47;0.80;;;5.50;99.90;;;;;;5089055;28;20521;-71
2022/11/21 06:11:07;;;;;;;0.73;0.73;;;5.40;99.90;;;;;;5114814;27;20464;-72
2022/11/21 06:13:33;;;;;;;1.43;1.07;;;5.40;99.90;;;;;;5083844;28;20461;-71
2022/11/21 06:16:28;;;;;;;0.70;0.60;;;5.40;99.90;;;;;;5070737;28;20453;-72
2022/11/21 06:18:54;;;;;;;0.80;0.80;;;5.40;99.90;;;;;;5053496;28;20553;-72
2022/11/21 06:21:25;;;;;;;2.07;1.83;;;5.40;99.90;;;;;;5052045;28;20470;-70
2022/11/21 06:23:53;;;;;;;1.47;1.37;;;5.40;99.90;;;;;;5052505;28;20570;-71
2022/11/21 06:26:21;;;;;;;3.30;1.70;;;5.40;99.90;;;;;;5081884;28;20449;-72
2022/11/21 06:28:47;;;;;;;2.47;1.90;;;5.40;99.90;;;;;;5072488;28;20603;-71
2022/11/21 06:31:17;;;;;;;2.07;1.80;;;5.40;99.90;;;;;;5069847;28;20460;-70
2022/11/21 06:33:43;;;;;;;1.70;1.60;;;5.40;99.90;;;;;;5071438;28;20462;-72
2022/11/21 06:36:15;;;;;;;1.80;1.57;;;5.40;99.90;;;;;;5091867;28;20544;-71
2022/11/21 06:38:41;;;;;;;3.80;2.43;;;5.40;99.90;;;;;;5075790;28;20458;-71
2022/11/21 06:41:17;;;;;;;9.60;6.73;;;5.40;99.90;;;;;;5061869;28;20486;-72
2022/11/21 06:43:43;;;;;;;3.17;2.23;;;5.40;99.90;;;;;;5079174;28;21022;-72
2022/11/21 06:46:09;;;;;;;3.13;2.60;;;5.40;99.90;;;;;;5076581;28;20453;-72
2022/11/21 06:48:36;;;;;;;2.83;2.37;;;5.40;99.90;;;;;;5069811;28;20461;-71
2022/11/21 06:51:08;;;;;;;6.03;2.70;;;5.40;99.90;;;;;;5085156;28;20461;-72
2022/11/21 06:53:34;;;;;;;7.23;3.33;;;5.40;99.90;;;;;;5080227;28;20461;-71
2022/11/21 06:56:03;;;;;;;2.60;2.40;;;5.40;99.90;;;;;;5081863;28;20492;-72
2022/11/21 06:58:29;;;;;;;4.73;4.33;;;5.40;99.90;;;;;;5071294;28;20294;-72
2022/11/21 07:00:55;;;;;;;11.03;7.40;;;5.40;99.90;;;;;;5076546;28;20523;-71
2022/11/21 07:03:21;;;;;;;7.20;4.60;;;5.40;99.90;;;;;;5075967;28;20445;-72
2022/11/21 07:05:47;;;;;;;2.07;1.97;;;5.40;99.90;;;;;;5052869;28;20473;-72
2022/11/21 07:08:13;;;;;;;3.37;2.27;;;5.40;99.90;;;;;;5086452;28;20234;-70
2022/11/21 07:10:39;;;;;;;2.77;2.20;;;5.40;99.90;;;;;;5062973;28;20512;-72
2022/11/21 07:13:20;;;;;;;2.57;2.43;;;5.40;99.90;;;;;;5091462;28;20461;-72
2022/11/21 07:15:50;;;;;;;5.80;2.57;;;5.40;99.90;;;;;;5090335;28;20460;-72
2022/11/21 07:18:16;;;;;;;5.10;3.77;;;5.40;99.90;;;;;;5068914;28;20469;-71
2022/11/21 07:20:42;;;;;;;3.10;2.90;;;5.40;99.90;;;;;;5087253;28;20497;-72
2022/11/21 07:23:08;;;;;;;3.87;2.67;;;5.40;99.90;;;;;;5059337;28;20707;-72
2022/11/21 07:25:34;;;;;;;3.00;1.83;;;5.40;99.90;;;;;;5112295;27;20301;-71
2022/11/21 07:28:01;;;;;;;1.90;1.80;;;5.40;99.90;;;;;;5077886;28;20577;-72
2022/11/21 07:30:28;;;;;;;1.73;1.63;;;5.40;99.90;;;;;;5072285;28;20585;-72
2022/11/21 07:33:01;;;;;;;1.63;1.53;;;5.40;99.90;;;;;;5071195;28;20460;-72
2022/11/21 07:35:27;;;;;;;1.57;1.47;;;5.40;99.90;;;;;;5074389;28;21045;-72
2022/11/21 07:37:53;;;;;;;4.27;2.40;;;5.40;99.90;;;;;;5097384;28;20624;-72
2022/11/21 07:40:20;;;;;;;2.10;1.50;;;5.40;99.90;;;;;;5078980;28;21037;-71
2022/11/21 07:42:46;;;;;;;2.30;2.10;;;5.40;99.90;;;;;;5092044;28;20934;-72
2022/11/21 07:45:12;;;;;;;2.23;1.53;;;5.40;99.90;;;;;;5074936;28;20477;-72
2022/11/21 07:47:38;;;;;;;1.50;1.00;;;5.50;99.90;;;;;;5074997;28;20455;-72
2022/11/21 07:50:06;;;;;;;2.53;1.83;;;5.50;99.90;;;;;;5068349;28;20449;-72
2022/11/21 07:52:31;;;;;;;2.73;1.70;;;5.60;99.90;;;;;;5080710;28;20634;-72
2022/11/21 07:54:57;;;;;;;3.63;1.77;;;5.60;99.90;;;;;;5056588;28;20523;-72
2022/11/21 07:57:23;;;;;;;2.00;1.30;;;5.60;99.90;;;;;;5078120;28;20218;-72
2022/11/21 07:59:49;;;;;;;2.10;2.00;;;5.60;99.90;;;;;;5093873;28;20229;-72
2022/11/21 08:02:21;;;;;;;5.83;2.10;;;5.60;99.90;;;;;;5074507;28;20433;-72
2022/11/21 08:04:48;;;;;;;2.53;2.10;;;5.60;99.90;;;;;;5069253;28;20468;-72
2022/11/21 08:07:15;;;;;;;2.57;1.70;;;5.60;99.90;;;;;;5076838;28;20441;-72
2022/11/21 08:09:40;;;;;;;4.53;1.90;;;5.60;99.90;;;;;;5068431;28;20453;-72
2022/11/21 08:12:07;;;;;;;4.30;3.00;;;5.60;99.90;;;;;;5078894;28;20460;-72
2022/11/21 08:14:33;;;;;;;3.50;2.57;;;5.60;99.90;;;;;;5060294;28;20219;-72
2022/11/21 08:16:59;;;;;;;4.23;2.70;;;5.60;99.90;;;;;;5089320;28;20453;-72
2022/11/21 08:19:24;;;;;;;6.53;2.00;;;5.60;99.90;;;;;;5086709;28;20443;-72
2022/11/21 08:21:50;;;;;;;2.20;1.50;;;5.70;99.90;;;;;;5080472;28;20230;-72
2022/11/21 08:24:16;;;;;;;7.23;2.27;;;5.70;99.90;;;;;;5070591;28;20292;-72
2022/11/21 08:26:43;;;;;;;1.80;1.70;;;5.80;99.90;;;;;;5064820;28;20704;-71
2022/11/21 08:29:10;;;;;;;1.70;1.40;;;5.90;99.90;;;;;;5074103;28;20453;-72
2022/11/21 08:31:37;;;;;;;2.53;1.40;;;6.00;99.90;;;;;;5083392;28;20536;-72
2022/11/21 08:34:02;;;;;;;5.83;1.70;;;6.00;99.90;;;;;;5076075;28;20455;-71
2022/11/21 08:36:28;;;;;;;7.90;2.10;;;6.10;99.90;;;;;;5073490;28;20457;-70
2022/11/21 08:38:54;;;;;;;2.13;1.93;;;6.10;99.90;;;;;;5086521;28;20461;-72
2022/11/21 08:44:04;;;;;;;2.10;1.80;;;6.20;99.90;;;;;;5079787;28;20218;-72
2022/11/21 08:46:32;;;;;;;1.83;1.67;;;6.30;99.90;;;;;;5070195;28;20877;-71
2022/11/21 08:48:58;;;;;;;2.43;1.80;;;6.40;99.90;;;;;;5073727;28;20503;-72
2022/11/21 08:51:24;;;;;;;1.90;1.63;;;6.40;99.90;;;;;;5068965;28;20462;-72
2022/11/21 08:53:49;;;;;;;2.33;1.43;;;6.50;99.90;;;;;;5069111;28;20465;-72
2022/11/21 08:56:15;;;;;;;2.40;1.43;;;6.50;99.90;;;;;;5075981;28;20268;-72
2022/11/21 08:58:41;;;;;;;1.50;1.20;;;6.50;99.90;;;;;;5077659;28;20260;-71
2022/11/21 09:01:07;;;;;;;1.53;1.17;;;6.50;99.90;;;;;;5084004;28;20223;-71
2022/11/21 09:03:32;;;;;;;1.10;1.03;;;6.60;99.90;;;;;;5085112;28;20218;-71
2022/11/21 09:05:59;;;;;;;1.33;1.20;;;6.60;99.90;;;;;;5088087;28;20214;-73
2022/11/21 09:08:25;;;;;;;2.83;1.30;;;6.70;99.90;;;;;;5079877;28;20281;-72
2022/11/21 09:10:51;;;;;;;2.90;1.50;;;6.70;99.90;;;;;;5061420;28;20482;-72
2022/11/21 09:13:17;;;;;;;3.57;1.67;;;6.70;99.90;;;;;;5075903;28;20449;-73
2022/11/21 09:18:27;;;;;;;1.33;1.23;;;6.70;99.90;;;;;;5051689;28;20454;-72
2022/11/21 09:20:52;;;;;;;1.10;1.10;;;6.80;99.90;;;;;;5104527;27;20456;-72
2022/11/21 09:23:18;;;;;;;1.50;1.13;;;6.80;99.90;;;;;;5076836;28;20230;-72
2022/11/21 09:25:44;;;;;;;2.13;1.20;;;6.90;99.90;;;;;;5079899;28;20218;-72
2022/11/21 09:28:11;;;;;;;1.50;1.40;;;6.90;99.90;;;;;;5075638;28;20227;-72
2022/11/21 09:30:37;;;;;;;1.73;1.63;;;7.00;99.90;;;;;;5080096;28;20218;-72
2022/11/21 09:33:05;;;;;;;2.63;1.60;;;7.10;99.90;;;;;;5085640;28;20539;-72
2022/11/21 09:35:31;;;;;;;2.67;1.30;;;7.20;99.90;;;;;;5073444;28;20855;-72
2022/11/21 09:37:57;;;;;;;1.57;1.47;;;7.20;99.90;;;;;;5097831;28;20513;-72
2022/11/21 09:40:23;;;;;;;3.13;1.30;;;7.30;99.90;;;;;;5093140;28;20233;-72
2022/11/21 09:43:16;;;;;;;1.70;1.30;;;7.30;99.90;;;;;;5070158;28;20453;-72
2022/11/21 09:46:08;;;;;;;1.80;1.67;;;7.30;99.90;;;;;;5085263;28;20535;-71
2022/11/21 09:48:57;;;;;;;2.20;1.50;;;7.40;99.90;;;;;;5063967;28;20462;-72
2022/11/21 09:51:24;;;;;;;4.97;1.20;;;7.40;99.90;;;;;;5074777;28;20454;-71
2022/11/21 09:54:09;;;;;;;5.03;1.53;;;7.40;99.90;;;;;;5110399;27;20462;-72
2022/11/21 09:56:39;;;;;;;5.40;1.27;;;7.50;99.90;;;;;;5079585;28;20463;-72
2022/11/21 09:59:20;;;;;;;1.50;1.17;;;7.50;99.90;;;;;;5072737;28;20457;-72
2022/11/21 10:01:46;;;;;;;2.23;1.50;;;7.60;99.90;;;;;;5090672;28;20476;-72
2022/11/21 10:04:12;;;;;;;1.40;1.20;;;7.60;99.90;;;;;;5082050;28;20456;-73
2022/11/21 10:07:09;;;;;;;1.90;1.40;;;7.60;99.90;;;;;;5112280;27;20700;-72
2022/11/21 10:10:16;;;;;;;3.17;1.93;;;7.70;99.90;;;;;;5070175;28;20289;-73
2022/11/21 10:13:09;;;;;;;3.30;2.20;;;7.70;99.90;;;;;;5083528;28;20899;-71
2022/11/21 10:15:52;;;;;;;6.63;2.73;;;7.60;99.90;;;;;;5070138;28;20457;-72
2022/11/21 10:18:27;;;;;;;4.30;2.00;;;7.60;99.90;;;;;;5103444;28;20466;-72
2022/11/21 10:21:04;;;;;;;2.57;1.40;;;7.70;99.90;;;;;;5094611;28;20500;-73
2022/11/21 10:23:48;;;;;;;1.50;1.40;;;7.80;99.90;;;;;;5075715;28;20489;-72
2022/11/21 10:26:21;;;;;;;3.67;1.87;;;7.90;99.90;;;;;;5074266;28;20934;-72
2022/11/21 10:28:59;;;;;;;2.83;2.17;;;7.90;99.90;;;;;;5073322;28;20461;-72
2022/11/21 10:31:30;;;;;;;2.50;1.53;;;7.90;99.90;;;;;;5095431;28;20804;-73
2022/11/21 10:33:57;;;;;;;2.70;1.33;;;7.90;99.90;;;;;;5070533;28;20482;-72
2022/11/21 10:36:46;;;;;;;2.03;1.40;;;8.00;99.90;;;;;;5079191;28;21039;-73
2022/11/21 10:39:33;;;;;;;0.70;0.70;;;8.10;99.90;;;;;;5050260;28;20462;-72
2022/11/21 10:42:16;;;;;;;3.23;1.10;;;8.10;99.90;;;;;;5074800;28;20477;-73
2022/11/21 10:47:32;;;;;;;3.27;1.63;;;7.90;99.90;;;;;;5072344;28;20503;-72
2022/11/21 10:50:02;;;;;;;3.63;1.90;;;7.90;99.90;;;;;;5089227;28;20477;-73
2022/11/21 10:52:33;;;;;;;4.10;1.50;;;7.80;99.90;;;;;;5081094;28;20504;-73
2022/11/21 10:55:01;;;;;;;1.97;1.13;;;7.80;99.90;;;;;;5085587;28;20486;-72
2022/11/21 10:57:30;;;;;;;1.40;1.30;;;7.70;99.90;;;;;;5089325;28;20611;-73
2022/11/21 10:59:59;;;;;;;1.87;1.30;;;7.70;99.90;;;;;;5059721;28;20472;-72
2022/11/21 11:02:25;;;;;;;3.00;1.33;;;7.70;99.90;;;;;;5083927;28;20468;-71
2022/11/21 11:05:10;;;;;;;3.90;1.33;;;7.70;99.90;;;;;;5078016;28;20461;-73
2022/11/21 11:07:35;;;;;;;2.17;1.47;;;7.70;99.90;;;;;;5085766;28;20215;-72
2022/11/21 11:10:37;;;;;;;4.10;1.27;;;7.70;99.90;;;;;;5113072;27;20854;-72
2022/11/21 11:16:10;;;;;;;7.63;1.03;;;7.70;99.90;;;;;;5077270;28;20470;-72
2022/11/21 11:18:56;;;;;;;0.70;0.70;;;7.70;99.90;;;;;;5069828;28;20503;-72
2022/11/21 11:21:28;;;;;;;1.43;0.90;;;7.70;99.90;;;;;;5089106;28;20460;-71
2022/11/21 11:24:19;;;;;;;3.47;1.80;;;7.70;99.90;;;;;;5086775;28;20527;-72
2022/11/21 11:26:48;;;;;;;1.70;1.50;;;7.70;99.90;;;;;;5082964;28;20465;-72
2022/11/21 11:29:14;;;;;;;1.13;1.03;;;7.70;99.90;;;;;;5089614;28;20453;-73
2022/11/21 11:31:49;;;;;;;1.87;1.50;;;7.70;99.90;;;;;;5083476;28;20464;-73
2022/11/21 11:34:16;;;;;;;2.00;1.50;;;7.80;99.90;;;;;;5091401;28;20992;-72
2022/11/21 11:37:05;;;;;;;4.10;1.53;;;7.80;99.90;;;;;;5072235;28;20457;-72
2022/11/21 11:39:48;;;;;;;0.93;0.90;;;7.80;99.90;;;;;;5066483;28;20434;-72
2022/11/21 11:48:03;;;;;;;1.83;1.20;;;8.10;99.90;;;;;;5071859;28;21057;-72
2022/11/21 11:50:46;;;;;;;2.87;1.33;;;8.10;99.90;;;;;;5047397;28;20452;-72
2022/11/21 11:53:24;;;;;;;1.53;1.23;;;8.10;99.90;;;;;;5101731;27;20457;-73
2022/11/21 11:55:58;;;;;;;3.97;1.37;;;8.10;99.90;;;;;;5072214;28;20446;-73
2022/11/21 11:58:33;;;;;;;4.30;1.20;;;8.20;99.90;;;;;;5096604;28;20454;-73
2022/11/21 12:01:02;;;;;;;2.03;1.23;;;8.30;99.90;;;;;;5069994;28;20551;-72
2022/11/21 12:03:58;;;;;;;1.50;1.30;;;8.30;99.90;;;;;;5070474;28;20457;-73
2022/11/21 12:06:28;;;;;;;3.47;1.33;;;8.40;99.90;;;;;;5078092;28;20477;-73
2022/11/21 12:09:29;;;;;;;3.80;1.13;;;8.60;99.90;;;;;;5082381;28;20569;-72
2022/11/21 12:12:07;;;;;;;1.30;1.10;;;8.80;99.90;;;;;;5074938;28;20471;-73
2022/11/21 12:18:13;;;;;;;4.57;1.30;;;8.80;99.90;;;;;;5083871;28;20460;-73
2022/11/21 12:20:54;;;;;;;3.77;1.10;;;8.70;99.90;;;;;;5075796;28;20469;-72
2022/11/21 12:23:22;;;;;;;1.47;1.07;;;8.70;99.90;;;;;;5051483;28;20446;-73
2022/11/21 12:26:19;;;;;;;1.60;1.40;;;8.60;99.90;;;;;;5075905;28;20499;-73
2022/11/21 12:28:54;;;;;;;1.83;1.20;;;8.60;99.90;;;;;;5079792;28;20444;-72
2022/11/21 12:31:19;;;;;;;5.47;1.37;;;8.60;99.90;;;;;;5093742;28;20533;-72
2022/11/21 12:34:17;;;;;;;1.73;1.10;;;8.70;99.90;;;;;;5076660;28;20544;-73
2022/11/21 12:36:55;;;;;;;1.53;1.23;;;8.80;99.90;;;;;;5030296;28;20222;-73
2022/11/21 12:39:43;;;;;;;2.90;1.30;;;8.80;99.90;;;;;;5073288;28;20499;-73
2022/11/21 12:42:50;;;;;;;4.30;1.47;;;8.80;99.90;;;;;;5067216;28;20521;-73
2022/11/21 12:45:27;;;;;;;1.63;1.10;;;8.80;99.90;;;;;;5064161;28;20454;-73
2022/11/21 12:54:32;;;;;;;4.87;1.60;;;8.90;99.90;;;;;;5086326;28;20456;-73
2022/11/21 12:57:10;;;;;;;2.10;1.90;;;8.90;99.90;;;;;;5075778;28;20450;-72
2022/11/21 13:00:10;;;;;;;3.30;1.70;;;9.00;99.90;;;;;;5081387;28;20464;-73
2022/11/21 13:03:00;;;;;;;2.40;1.87;;;9.00;99.90;;;;;;5050755;28;21034;-73
2022/11/21 13:05:34;;;;;;;2.43;1.57;;;8.90;99.90;;;;;;5101804;28;20464;-73
2022/11/21 13:08:11;;;;;;;2.10;1.90;;;8.90;99.90;;;;;;5075177;28;20978;-73
2022/11/21 13:10:41;;;;;;;2.83;2.00;;;8.90;99.90;;;;;;5060973;28;20873;-72
2022/11/21 13:13:27;;;;;;;2.13;1.93;;;8.90;99.90;;;;;;5075893;28;20997;-73
2022/11/21 13:16:01;;;;;;;2.43;1.60;;;8.90;99.90;;;;;;5075377;28;20481;-72
2022/11/21 13:18:41;;;;;;;4.23;2.03;;;8.90;99.90;;;;;;5072242;28;20451;-73
2022/11/21 13:21:46;;;;;;;2.67;2.07;;;8.90;99.90;;;;;;5064851;28;20491;-73
2022/11/21 13:24:44;;;;;;;4.63;1.93;;;8.90;99.90;;;;;;5093647;28;20449;-73
2022/11/21 13:27:34;;;;;;;1.83;1.70;;;9.00;99.90;;;;;;5088775;28;20503;-73
2022/11/21 13:30:05;;;;;;;2.70;1.60;;;9.00;99.90;;;;;;5039671;28;20462;-73
2022/11/21 13:33:27;;;;;;;2.03;1.83;;;9.10;99.90;;;;;;5068700;28;20518;-72
2022/11/21 13:35:52;;;;;;;5.33;1.80;;;9.10;99.90;;;;;;5018177;28;20492;-72
2022/11/21 13:38:18;;;;;;;3.20;1.60;;;9.10;99.90;;;;;;5084577;28;20461;-73
2022/11/21 13:42:55;;;;;;;2.27;1.77;;;9.10;99.90;;;;;;5086796;28;20230;-73
2022/11/21 13:43:29;;;;;;;2.40;1.60;;;9.10;99.90;;;;;;5055903;28;20236;-72
2022/11/21 13:45:57;;;;;;;3.20;1.80;;;9.20;99.90;;;;;;5053063;28;20482;-73